createdAt,value
2022-11-29T00:01:40.297Z,51.88
2022-11-29T00:04:10.418Z,51.42
2022-11-29T00:06:39.475Z,52.45
2022-11-29T00:09:11.565Z,54.38
2022-11-29T00:11:58.906Z,45.22
2022-11-29T00:14:29.166Z,48.45
2022-11-29T00:17:02.021Z,49.15
2022-11-29T00:19:32.952Z,50.17
2022-11-29T00:22:01.896Z,48.55
2022-11-29T00:24:32.556Z,53.08
2022-11-29T00:27:02.092Z,50.83
2022-11-29T00:29:31.451Z,53.50
2022-11-29T00:32:00.142Z,48.15
2022-11-29T00:34:28.960Z,52.78
2022-11-29T00:36:58.811Z,47.85
2022-11-29T00:39:27.297Z,48.42
2022-11-29T00:41:55.657Z,51.83
2022-11-29T00:44:24.059Z,45.33
2022-11-29T00:46:52.480Z,47.00
2022-11-29T00:49:21.083Z,56.22
2022-11-29T00:51:49.429Z,52.85
2022-11-29T00:54:19.130Z,50.03
2022-11-29T00:56:47.567Z,52.20
2022-11-29T00:59:15.992Z,55.08
2022-11-29T01:01:44.363Z,46.83
2022-11-29T01:04:12.951Z,50.72
2022-11-29T01:06:41.312Z,49.90
2022-11-29T01:09:09.750Z,49.35
2022-11-29T01:11:39.461Z,50.80
2022-11-29T01:14:07.810Z,53.72
2022-11-29T01:16:36.448Z,56.17
2022-11-29T01:19:07.199Z,52.08
2022-11-29T01:21:35.675Z,51.72
2022-11-29T01:24:04.179Z,48.70
2022-11-29T01:26:32.856Z,49.22
2022-11-29T01:29:02.538Z,53.67
2022-11-29T01:31:33.283Z,56.80
2022-11-29T01:34:03.150Z,50.47
2022-11-29T01:36:32.027Z,46.67
2022-11-29T01:39:01.697Z,53.65
2022-11-29T01:41:32.555Z,48.35
2022-11-29T01:44:04.729Z,51.35
2022-11-29T01:46:35.244Z,50.53
2022-11-29T01:49:09.138Z,54.40
2022-11-29T01:51:39.915Z,50.67
2022-11-29T01:54:09.654Z,52.53
2022-11-29T01:56:39.993Z,53.05
2022-11-29T01:59:12.549Z,53.42
2022-11-29T02:01:41.395Z,52.78
2022-11-29T02:04:10.161Z,53.05
2022-11-29T02:06:39.837Z,53.35
2022-11-29T02:09:19.856Z,54.97
2022-11-29T02:12:06.181Z,51.50
2022-11-29T02:14:49.612Z,49.15
2022-11-29T02:17:31.257Z,51.90
2022-11-29T02:20:31.606Z,47.20
2022-11-29T02:23:13.122Z,49.65
2022-11-29T02:25:58.471Z,52.28
2022-11-29T02:28:49.450Z,53.05
2022-11-29T02:31:57.466Z,56.55
2022-11-29T02:34:46.777Z,50.75
2022-11-29T02:37:34.300Z,53.35
2022-11-29T02:40:17.923Z,54.97
2022-11-29T02:43:11.678Z,52.90
2022-11-29T02:45:51.422Z,51.20
2022-11-29T02:48:34.202Z,52.17
2022-11-29T02:51:12.531Z,49.35
2022-11-29T02:53:48.658Z,53.25
2022-11-29T02:56:27.102Z,52.38
2022-11-29T02:59:02.692Z,52.75
2022-11-29T03:01:38.188Z,53.88
2022-11-29T03:04:16.418Z,53.05
2022-11-29T03:06:54.292Z,48.50
2022-11-29T03:09:33.275Z,51.67
2022-11-29T03:12:07.341Z,53.90
2022-11-29T03:14:51.131Z,53.35
2022-11-29T03:17:32.474Z,50.50
2022-11-29T03:20:18.592Z,49.45
2022-11-29T03:23:06.180Z,48.50
2022-11-29T03:25:39.958Z,52.72
2022-11-29T03:28:14.909Z,52.97
2022-11-29T03:30:51.180Z,54.65
2022-11-29T03:33:28.787Z,53.65
2022-11-29T03:36:03.009Z,53.67
2022-11-29T03:38:39.623Z,52.67
2022-11-29T03:41:18.670Z,57.42
2022-11-29T03:43:52.333Z,57.42
2022-11-29T03:46:26.662Z,49.50
2022-11-29T03:51:38.719Z,50.05
2022-11-29T03:54:16.292Z,59.53
2022-11-29T03:56:45.269Z,49.55
2022-11-29T03:59:26.337Z,52.08
2022-11-29T04:02:32.400Z,55.78
2022-11-29T04:05:25.007Z,53.72
2022-11-29T04:08:06.646Z,56.88
2022-11-29T04:11:06.979Z,51.90
2022-11-29T04:13:58.910Z,53.15
2022-11-29T04:16:47.782Z,53.47
2022-11-29T04:19:50.350Z,52.78
2022-11-29T04:22:44.504Z,49.17
2022-11-29T04:25:38.139Z,57.47
2022-11-29T04:28:46.156Z,54.70
2022-11-29T04:31:24.112Z,52.72
2022-11-29T04:34:22.240Z,60.20
2022-11-29T04:37:08.331Z,50.60
2022-11-29T04:40:03.609Z,54.47
2022-11-29T04:42:56.139Z,53.97
2022-11-29T04:45:58.368Z,54.83
2022-11-29T04:48:48.185Z,57.70
2022-11-29T04:51:27.088Z,54.42
2022-11-29T04:54:04.363Z,56.53
2022-11-29T04:56:41.086Z,53.67
2022-11-29T04:59:17.231Z,53.67
2022-11-29T05:02:02.984Z,54.30
2022-11-29T05:04:41.388Z,55.28
2022-11-29T05:07:18.274Z,57.38
2022-11-29T05:09:59.947Z,59.40
2022-11-29T05:12:34.107Z,53.92
2022-11-29T05:15:23.611Z,56.38
2022-11-29T05:18:00.517Z,53.58
2022-11-29T05:20:40.170Z,57.95
2022-11-29T05:23:30.467Z,53.72
2022-11-29T05:26:06.119Z,58.60
2022-11-29T05:28:44.663Z,60.15
2022-11-29T05:31:25.978Z,58.63
2022-11-29T05:34:34.655Z,55.85
2022-11-29T05:37:16.105Z,59.15
2022-11-29T05:39:58.393Z,56.08
2022-11-29T05:42:47.785Z,55.38
2022-11-29T05:45:24.069Z,51.13
2022-11-29T05:47:58.797Z,54.50
2022-11-29T05:50:35.267Z,55.38
2022-11-29T05:53:17.847Z,55.90
2022-11-29T05:55:57.786Z,55.00
2022-11-29T05:58:33.260Z,57.55
2022-11-29T06:01:10.574Z,56.03
2022-11-29T06:03:45.781Z,59.03
2022-11-29T06:06:24.063Z,54.15
2022-11-29T06:08:59.403Z,55.33
2022-11-29T06:11:34.209Z,55.42
2022-11-29T06:14:09.606Z,52.90
2022-11-29T06:17:03.607Z,56.17
2022-11-29T06:19:57.408Z,53.28
2022-11-29T06:22:56.690Z,53.58
2022-11-29T06:25:47.035Z,60.30
2022-11-29T06:28:29.411Z,55.47
2022-11-29T06:31:04.030Z,49.25
2022-11-29T06:33:39.560Z,57.25
2022-11-29T06:36:20.949Z,59.97
2022-11-29T06:38:51.080Z,54.78
2022-11-29T06:41:22.042Z,57.22
2022-11-29T06:43:51.707Z,50.38
2022-11-29T06:46:32.344Z,54.17
2022-11-29T06:49:09.886Z,59.80
2022-11-29T06:51:48.508Z,59.45
2022-11-29T06:54:32.693Z,63.08
2022-11-29T06:57:09.377Z,59.95
2022-11-29T06:59:50.146Z,57.50
2022-11-29T07:02:35.183Z,57.65
2022-11-29T07:05:14.160Z,56.55
2022-11-29T07:07:43.562Z,58.35
2022-11-29T07:10:18.191Z,56.83
2022-11-29T07:12:48.260Z,51.28
2022-11-29T07:15:18.683Z,52.78
2022-11-29T07:18:03.795Z,52.97
2022-11-29T07:20:39.681Z,55.22
2022-11-29T07:23:18.489Z,51.25
2022-11-29T07:25:56.681Z,53.47
2022-11-29T07:28:40.481Z,54.83
2022-11-29T07:31:16.449Z,51.63
2022-11-29T07:33:59.746Z,55.22
2022-11-29T07:36:37.428Z,59.47
2022-11-29T07:39:19.201Z,55.42
2022-11-29T07:41:58.754Z,54.72
2022-11-29T07:44:36.256Z,50.58
2022-11-29T07:47:04.613Z,52.35
2022-11-29T07:49:32.983Z,55.33
2022-11-29T07:52:01.396Z,60.67
2022-11-29T07:54:29.753Z,59.22
2022-11-29T07:56:59.658Z,55.13
2022-11-29T07:59:27.950Z,54.78
2022-11-29T08:01:56.884Z,50.72
2022-11-29T08:04:25.583Z,63.10
2022-11-29T08:06:53.931Z,53.80
2022-11-29T08:09:22.286Z,52.58
2022-11-29T08:11:50.644Z,58.17
2022-11-29T08:14:20.350Z,53.45
2022-11-29T08:16:48.721Z,53.80
2022-11-29T08:19:17.115Z,52.20
2022-11-29T08:21:46.946Z,55.70
2022-11-29T08:24:15.279Z,55.92
2022-11-29T08:26:43.725Z,55.20
2022-11-29T08:29:12.117Z,53.25
2022-11-29T08:31:41.997Z,53.65
2022-11-29T08:34:10.638Z,50.97
2022-11-29T08:36:39.413Z,56.88
2022-11-29T08:39:09.719Z,54.35
2022-11-29T08:41:38.213Z,56.38
2022-11-29T08:44:06.927Z,56.03
2022-11-29T08:46:52.962Z,54.25
2022-11-29T08:49:22.632Z,53.67
2022-11-29T08:51:53.189Z,59.47
2022-11-29T08:54:20.522Z,56.47
2022-11-29T08:59:37.191Z,53.20
2022-11-29T09:02:05.946Z,52.78
2022-11-29T09:04:35.831Z,55.35
2022-11-29T09:07:04.146Z,51.45
2022-11-29T09:09:32.491Z,51.35
2022-11-29T09:12:00.847Z,49.97
2022-11-29T09:14:29.218Z,51.60
2022-11-29T09:16:57.603Z,53.92
2022-11-29T09:19:26.332Z,48.63
2022-11-29T09:21:56.460Z,57.72
2022-11-29T09:24:24.832Z,52.10
2022-11-29T09:26:53.184Z,56.92
2022-11-29T09:29:21.649Z,53.72
2022-11-29T09:31:50.106Z,50.88
2022-11-29T09:34:19.528Z,53.90
2022-11-29T09:36:48.176Z,51.35
2022-11-29T09:39:17.858Z,50.60
2022-11-29T09:42:05.112Z,49.10
2022-11-29T09:44:45.263Z,49.25
2022-11-29T09:47:25.980Z,47.80
2022-11-29T09:50:03.816Z,45.75
2022-11-29T09:52:42.029Z,48.05
2022-11-29T09:55:35.230Z,51.42
2022-11-29T09:58:07.088Z,49.97
2022-11-29T10:00:44.376Z,47.83
2022-11-29T10:03:23.225Z,51.15
2022-11-29T10:05:58.393Z,47.72
2022-11-29T10:08:33.310Z,50.45
2022-11-29T10:11:15.931Z,48.53
2022-11-29T10:13:49.524Z,50.85
2022-11-29T10:16:24.973Z,53.78
2022-11-29T10:19:02.929Z,48.78
2022-11-29T10:21:36.359Z,50.17
2022-11-29T10:24:11.810Z,54.37
2022-11-29T10:26:43.480Z,50.80
2022-11-29T10:29:15.324Z,47.38
2022-11-29T10:31:49.392Z,52.00
2022-11-29T10:34:20.737Z,52.65
2022-11-29T10:36:51.299Z,49.22
2022-11-29T10:39:25.278Z,51.38
2022-11-29T10:41:57.535Z,50.10
2022-11-29T10:44:26.446Z,49.67
2022-11-29T10:46:56.667Z,52.88
2022-11-29T10:49:29.333Z,52.17
2022-11-29T10:51:57.676Z,49.35
2022-11-29T10:54:37.810Z,50.25
2022-11-29T10:57:14.303Z,51.53
2022-11-29T10:59:42.960Z,49.35
2022-11-29T11:02:19.691Z,53.67
2022-11-29T11:04:50.083Z,55.67
2022-11-29T11:07:24.863Z,52.58
2022-11-29T11:09:56.788Z,46.55
2022-11-29T11:12:29.125Z,53.00
2022-11-29T11:15:28.120Z,60.97
2022-11-29T11:17:58.773Z,51.25
2022-11-29T11:20:30.051Z,55.75
2022-11-29T11:23:00.847Z,51.72
2022-11-29T11:25:31.899Z,53.00
2022-11-29T11:28:15.403Z,52.97
2022-11-29T11:30:51.756Z,51.90
2022-11-29T11:33:23.045Z,57.67
2022-11-29T11:36:10.143Z,54.78
2022-11-29T11:38:40.510Z,58.47
2022-11-29T11:41:19.756Z,54.35
2022-11-29T11:43:57.136Z,52.70
2022-11-29T11:46:50.229Z,53.75
2022-11-29T11:49:27.447Z,50.28
2022-11-29T11:51:55.985Z,57.17
2022-11-29T11:54:24.398Z,54.65
2022-11-29T11:56:53.088Z,60.42
2022-11-29T11:59:26.356Z,107.90
2022-11-29T12:01:55.103Z,69.05
2022-11-29T12:04:28.752Z,56.85
2022-11-29T12:06:59.566Z,61.03
2022-11-29T12:09:36.066Z,59.40
2022-11-29T12:12:12.566Z,57.90
2022-11-29T12:14:49.668Z,56.28
2022-11-29T12:17:28.464Z,59.63
2022-11-29T12:20:11.496Z,54.05
2022-11-29T12:22:48.742Z,64.75
2022-11-29T12:25:22.982Z,60.05
2022-11-29T12:27:51.594Z,59.50
2022-11-29T12:30:21.748Z,51.83
2022-11-29T12:33:13.566Z,51.50
2022-11-29T12:36:07.390Z,57.15
2022-11-29T12:39:01.109Z,51.90
2022-11-29T12:41:38.204Z,57.63
2022-11-29T12:44:19.248Z,54.63
2022-11-29T12:47:02.135Z,53.17
2022-11-29T12:49:46.468Z,55.92
2022-11-29T12:52:24.395Z,49.05
2022-11-29T12:55:02.831Z,57.95
2022-11-29T12:57:39.452Z,59.58
2022-11-29T13:00:14.154Z,60.58
2022-11-29T13:02:57.165Z,55.45
2022-11-29T13:05:39.446Z,61.28
2022-11-29T13:08:43.976Z,53.30
2022-11-29T13:11:20.187Z,54.63
2022-11-29T13:14:20.082Z,65.18
2022-11-29T13:16:57.376Z,62.38
2022-11-29T13:19:35.985Z,60.33
2022-11-29T13:22:13.377Z,59.92
2022-11-29T13:24:45.267Z,56.47
2022-11-29T13:27:18.049Z,60.63
2022-11-29T13:29:47.391Z,55.53
2022-11-29T13:32:35.700Z,50.75
2022-11-29T13:35:17.547Z,60.92
2022-11-29T13:37:55.192Z,62.03
2022-11-29T13:40:33.388Z,65.25
2022-11-29T13:43:10.122Z,82.57
2022-11-29T13:45:44.852Z,64.65
2022-11-29T13:48:33.997Z,69.75
2022-11-29T13:51:38.040Z,62.60
2022-11-29T13:54:26.894Z,60.65
2022-11-29T13:57:03.776Z,57.75
2022-11-29T13:59:34.672Z,61.15
2022-11-29T14:02:03.845Z,62.75
2022-11-29T14:04:37.020Z,63.55
2022-11-29T14:07:09.862Z,58.83
2022-11-29T14:09:46.048Z,61.15
2022-11-29T14:12:35.861Z,63.70
2022-11-29T14:15:15.766Z,64.57
2022-11-29T14:17:54.191Z,59.95
2022-11-29T14:20:59.467Z,63.63
2022-11-29T14:23:41.985Z,58.22
2022-11-29T14:26:43.609Z,62.28
2022-11-29T14:29:41.632Z,66.93
2022-11-29T14:32:23.435Z,63.15
2022-11-29T14:34:56.057Z,57.03
2022-11-29T14:37:45.516Z,61.30
2022-11-29T14:40:25.169Z,60.10
2022-11-29T14:42:54.990Z,59.13
2022-11-29T14:45:27.043Z,56.40
2022-11-29T14:47:56.280Z,56.78
2022-11-29T14:50:32.989Z,60.17
2022-11-29T14:53:02.215Z,66.18
2022-11-29T14:55:33.895Z,60.70
2022-11-29T14:58:22.777Z,60.22
2022-11-29T15:01:08.073Z,57.15
2022-11-29T15:03:47.875Z,60.78
2022-11-29T15:06:23.299Z,59.63
2022-11-29T15:09:04.662Z,58.33
2022-11-29T15:11:44.506Z,54.83
2022-11-29T15:14:21.563Z,58.30
2022-11-29T15:17:12.889Z,60.22
2022-11-29T15:20:12.468Z,60.22
2022-11-29T15:22:49.175Z,56.45
2022-11-29T15:25:19.873Z,59.30
2022-11-29T15:27:52.887Z,65.43
2022-11-29T15:30:30.604Z,61.00
2022-11-29T15:33:00.751Z,59.53
2022-11-29T15:35:30.553Z,56.50
2022-11-29T15:37:59.827Z,59.33
2022-11-29T15:40:35.369Z,62.40
2022-11-29T15:43:16.506Z,56.70
2022-11-29T15:45:56.724Z,56.00
2022-11-29T15:48:27.132Z,58.38
2022-11-29T15:51:03.783Z,62.00
2022-11-29T15:53:38.028Z,58.25
2022-11-29T15:56:14.806Z,57.13
2022-11-29T15:58:44.550Z,56.13
2022-11-29T16:01:20.178Z,59.53
2022-11-29T16:03:51.800Z,56.50
2022-11-29T16:06:27.727Z,60.05
2022-11-29T16:08:56.588Z,57.88
2022-11-29T16:11:29.331Z,53.58
2022-11-29T16:14:05.834Z,54.22
2022-11-29T16:16:35.852Z,59.55
2022-11-29T16:19:19.081Z,58.55
2022-11-29T16:21:58.814Z,56.72
2022-11-29T16:24:27.771Z,57.75
2022-11-29T16:26:56.934Z,64.82
2022-11-29T16:29:37.508Z,65.00
2022-11-29T16:32:27.343Z,60.60
2022-11-29T16:34:57.294Z,56.42
2022-11-29T16:37:30.067Z,63.25
2022-11-29T16:40:01.561Z,59.33
2022-11-29T16:42:31.922Z,59.97
2022-11-29T16:45:34.425Z,63.20
2022-11-29T16:48:28.772Z,63.60
2022-11-29T16:51:18.195Z,61.50
2022-11-29T16:53:49.855Z,58.75
2022-11-29T16:56:22.269Z,66.03
2022-11-29T16:59:25.277Z,67.55
2022-11-29T17:01:45.713Z,63.40
2022-11-29T17:04:23.701Z,60.45
2022-11-29T17:06:54.419Z,67.03
2022-11-29T17:09:25.317Z,65.53
2022-11-29T17:11:53.860Z,66.35
2022-11-29T17:14:22.249Z,67.88
2022-11-29T17:16:51.798Z,63.33
2022-11-29T17:19:23.717Z,59.58
2022-11-29T17:21:52.686Z,63.83
2022-11-29T17:24:22.919Z,60.45
2022-11-29T17:26:51.674Z,56.67
2022-11-29T17:29:20.339Z,65.70
2022-11-29T17:31:50.647Z,70.30
2022-11-29T17:34:19.221Z,61.58
2022-11-29T17:36:49.135Z,62.10
2022-11-29T17:39:20.043Z,61.08
2022-11-29T17:41:48.925Z,62.38
2022-11-29T17:44:17.313Z,61.75
2022-11-29T17:46:45.846Z,69.30
2022-11-29T17:49:14.431Z,68.93
2022-11-29T17:51:51.790Z,62.08
2022-11-29T17:54:22.710Z,69.72
2022-11-29T17:56:51.838Z,63.10
2022-11-29T17:59:20.456Z,68.78
2022-11-29T18:01:48.971Z,64.68
2022-11-29T18:04:17.609Z,63.53
2022-11-29T18:06:50.220Z,62.10
2022-11-29T18:09:20.043Z,64.30
2022-11-29T18:11:50.714Z,64.53
2022-11-29T18:14:21.217Z,65.00
2022-11-29T18:16:50.377Z,64.45
2022-11-29T18:19:21.274Z,64.45
2022-11-29T18:21:50.452Z,62.53
2022-11-29T18:24:19.324Z,59.30
2022-11-29T18:26:49.248Z,70.75
2022-11-29T18:29:18.029Z,74.65
2022-11-29T18:31:47.288Z,60.20
2022-11-29T18:34:15.828Z,59.85
2022-11-29T18:36:45.702Z,62.60
2022-11-29T18:39:16.264Z,63.40
2022-11-29T18:41:48.105Z,62.17
2022-11-29T18:44:20.154Z,62.90
2022-11-29T18:46:48.940Z,63.45
2022-11-29T18:49:18.798Z,63.33
2022-11-29T18:51:48.419Z,63.72
2022-11-29T18:54:18.650Z,63.00
2022-11-29T18:56:47.244Z,65.05
2022-11-29T18:59:18.196Z,68.32
2022-11-29T19:01:48.680Z,75.20
2022-11-29T19:04:27.497Z,70.65
2022-11-29T19:06:57.679Z,62.33
2022-11-29T19:09:26.292Z,65.88
2022-11-29T19:11:54.627Z,72.13
2022-11-29T19:14:24.366Z,65.70
2022-11-29T19:16:52.706Z,63.75
2022-11-29T19:19:22.271Z,69.30
2022-11-29T19:21:50.769Z,68.75
2022-11-29T19:24:19.525Z,69.88
2022-11-29T19:26:49.084Z,66.85
2022-11-29T19:29:18.443Z,66.72
2022-11-29T19:31:48.217Z,62.15
2022-11-29T19:34:16.588Z,67.68
2022-11-29T19:36:45.594Z,63.58
2022-11-29T19:39:15.966Z,68.20
2022-11-29T19:41:46.307Z,67.13
2022-11-29T19:44:14.679Z,67.63
2022-11-29T19:46:45.608Z,67.55
2022-11-29T19:49:16.247Z,63.90
2022-11-29T19:51:45.120Z,60.58
2022-11-29T19:54:13.526Z,69.53
2022-11-29T19:56:42.129Z,62.78
2022-11-29T19:59:10.507Z,69.57
2022-11-29T20:01:42.384Z,67.60
2022-11-29T20:04:12.746Z,70.55
2022-11-29T20:06:43.068Z,74.30
2022-11-29T20:09:12.100Z,74.78
2022-11-29T20:11:43.936Z,63.97
2022-11-29T20:14:13.183Z,64.90
2022-11-29T20:16:42.671Z,69.78
2022-11-29T20:19:13.326Z,73.38
2022-11-29T20:21:45.912Z,71.93
2022-11-29T20:24:15.576Z,67.70
2022-11-29T20:26:46.374Z,64.78
2022-11-29T20:29:15.642Z,69.70
2022-11-29T20:31:50.134Z,70.30
2022-11-29T20:34:20.725Z,68.85
2022-11-29T20:37:12.867Z,71.70
2022-11-29T20:39:49.065Z,65.28
2022-11-29T20:42:53.220Z,65.90
2022-11-29T20:45:22.318Z,63.83
2022-11-29T20:47:54.874Z,64.35
2022-11-29T20:50:25.407Z,67.28
2022-11-29T20:53:15.268Z,72.43
2022-11-29T20:55:47.893Z,66.80
2022-11-29T20:58:17.562Z,64.60
2022-11-29T21:00:46.285Z,69.47
2022-11-29T21:03:15.281Z,70.72
2022-11-29T21:05:43.897Z,66.55
2022-11-29T21:08:14.469Z,71.32
2022-11-29T21:10:43.169Z,68.57
2022-11-29T21:13:13.377Z,69.43
2022-11-29T21:15:42.836Z,74.25
2022-11-29T21:18:21.498Z,66.90
2022-11-29T21:21:01.034Z,78.22
2022-11-29T21:23:39.701Z,69.60
2022-11-29T21:26:16.287Z,78.28
2022-11-29T21:28:57.796Z,74.50
2022-11-29T21:31:26.710Z,76.53
2022-11-29T21:33:55.665Z,75.63
2022-11-29T21:36:24.044Z,72.00
2022-11-29T21:38:55.383Z,77.60
2022-11-29T21:41:24.251Z,80.07
2022-11-29T21:44:08.591Z,73.15
2022-11-29T21:46:37.561Z,76.78
2022-11-29T21:49:06.275Z,72.93
2022-11-29T21:51:34.592Z,73.35
2022-11-29T21:54:04.591Z,77.43
2022-11-29T21:56:33.041Z,72.38
2022-11-29T21:59:01.499Z,70.47
2022-11-29T22:01:29.889Z,72.68
2022-11-29T22:03:58.511Z,75.00
2022-11-29T22:06:29.220Z,79.72
2022-11-29T22:08:58.224Z,81.68
2022-11-29T22:11:34.402Z,75.90
2022-11-29T22:14:16.066Z,77.07
2022-11-29T22:16:46.387Z,74.95
2022-11-29T22:19:18.934Z,74.32
2022-11-29T22:21:49.318Z,76.50
2022-11-29T22:24:19.316Z,77.93
2022-11-29T22:26:49.950Z,76.05
2022-11-29T22:29:18.498Z,74.50
2022-11-29T22:31:48.822Z,74.88
2022-11-29T22:34:17.521Z,72.35
2022-11-29T22:36:46.184Z,75.38
2022-11-29T22:39:15.181Z,76.55
2022-11-29T22:41:44.736Z,77.20
2022-11-29T22:44:16.758Z,76.70
2022-11-29T22:46:45.260Z,78.88
2022-11-29T22:49:13.702Z,77.03
2022-11-29T22:51:42.144Z,78.18
2022-11-29T22:54:15.325Z,72.10
2022-11-29T22:56:44.725Z,76.55
2022-11-29T22:59:13.748Z,73.97
2022-11-29T23:01:43.770Z,78.80
2022-11-29T23:04:13.347Z,72.50
2022-11-29T23:06:43.933Z,75.00
2022-11-29T23:09:15.898Z,78.03
2022-11-29T23:11:45.265Z,70.00
2022-11-29T23:14:13.877Z,77.45
2022-11-29T23:16:43.697Z,81.57
2022-11-29T23:19:12.185Z,77.40
2022-11-29T23:21:41.637Z,81.00
2022-11-29T23:24:10.256Z,75.82
2022-11-29T23:26:40.712Z,77.18
2022-11-29T23:29:10.860Z,78.05
2022-11-29T23:31:39.293Z,78.55
2022-11-29T23:34:09.873Z,80.55
2022-11-29T23:36:38.280Z,70.70
2022-11-29T23:39:07.292Z,74.90
2022-11-29T23:41:35.787Z,75.72
2022-11-29T23:44:04.430Z,76.18
2022-11-29T23:46:33.164Z,70.07
2022-11-29T23:49:01.490Z,67.32
2022-11-29T23:51:31.238Z,74.75
2022-11-29T23:53:59.568Z,80.28
2022-11-29T23:56:28.025Z,80.80
2022-11-29T23:58:56.412Z,73.28
